CheckWX is a tool to help pilots better visualize weather data.  It is not intended as a substitute for an official pre-flight weather briefing.

21:46:45 UTC

KLSE TAF
La Crosse Regional Airport
La Crosse, Wisconsin, USA
KLSE 191903Z 1919/2018 16006KT P6SM SCT020 BKN120 TEMPO 1919/1921 BKN020 FM200100 12003KT P6SM SCT100 FM200900 12003KT 2SM BR BKN015 FM201500 15005KT P6SM BKN035

Sep-19@
19:00 UTC

Sep-19 @ 19:00 UTC

Sep-20@
01:00 UTC

Sep-20 @ 01:00 UTC

KLSE 191903Z 1919/2018 16006KT P6SM SCT020 BKN120
Wind
  • 160° at 6 KTS
Cloud Levels
  • Scattered at 2,000' AGL
  • Broken at 12,000' AGL

Sep-19@
19:00 UTC

Sep-19 @ 19:00 UTC

Sep-19@
21:00 UTC

Sep-19 @ 21:00 UTC

TEMPO 1919/1921 BKN020

Expired

Cloud Levels
  • Broken at 2,000' AGL

Sep-20@
01:00 UTC

Sep-20 @ 01:00 UTC

Sep-20@
09:00 UTC

Sep-20 @ 09:00 UTC

FM200100 12003KT P6SM SCT100

From

From Standard forecast or significant change

Wind
  • 120° at 3 KTS
Cloud Levels
  • Scattered at 10,000' AGL

Sep-20@
09:00 UTC

Sep-20 @ 09:00 UTC

Sep-20@
15:00 UTC

Sep-20 @ 15:00 UTC

FM200900 12003KT 2SM BR BKN015

From

From Standard forecast or significant change

Wind
  • 120° at 3 KTS
Conditions
Mist
Cloud Levels
  • Broken at 1,500' AGL

Sep-20@
15:00 UTC

Sep-20 @ 15:00 UTC

Sep-20@
18:00 UTC

Sep-20 @ 18:00 UTC

FM201500 15005KT P6SM BKN035

From

From Standard forecast or significant change

Wind
  • 150° at 5 KTS
Cloud Levels
  • Broken at 3,500' AGL